logo
Search for airport 
image banner adimage banner adimage banner ad
image banner ad

LSHN - Ostschweizer Kinderspital St. Gallen

Located in , Switzerland

ICAO - , IATA -

Data provided by Airmate  

General information

Coordinates: N47°25'46" E9°23'40"
Elevation is 2253 feet MSL.
 
View others Airports in Valais

Operational data

Special qualification required
Current time UTC:
Current local time:
Weather at : LSZR - St. Gallen-Altenrhein ( 14 km )
METAR: LSZR 202320Z AUTO 26006KT 220V290 9999 SCT033 BKN037 BKN041 05/02 Q1020
TAF: TAF LSZR 201425Z 2015/2024 32004KT 9999 FEW010 BKN060 TEMPO 2015/2024 SHRA PROB30 TEMPO 2015/2019 3000 TSGS SCT020CB
View NOTAMs / SUP AIP / TFR affecting this airport [VIEW]
Communications frequencies: [VIEW]

Runways:

Airport contact information

Address: Switzerland

Satellite view of LSHN